createdAt,value
2022-10-08T00:01:17.473Z,98917.06
2022-10-08T00:04:05.953Z,98917.19
2022-10-08T00:06:40.135Z,98900.63
2022-10-08T00:09:21.723Z,98910.31
2022-10-08T00:11:54.786Z,98914.09
2022-10-08T00:14:28.770Z,98895.84
2022-10-08T00:16:58.703Z,98913.03
2022-10-08T00:19:31.699Z,98911.94
2022-10-08T00:22:05.231Z,98909.66
2022-10-08T00:24:41.762Z,98905.78
2022-10-08T00:27:16.733Z,98903.31
2022-10-08T00:29:57.864Z,98889.34
2022-10-08T00:32:32.507Z,98902.09
2022-10-08T00:35:01.732Z,98905.25
2022-10-08T00:37:30.476Z,98906.50
2022-10-08T00:39:59.780Z,98899.69
2022-10-08T00:42:30.678Z,98883.06
2022-10-08T00:45:02.892Z,98892.28
2022-10-08T00:47:42.698Z,98892.59
2022-10-08T00:50:26.429Z,98894.44
2022-10-08T00:53:07.560Z,98868.22
2022-10-08T00:55:46.496Z,98886.94
2022-10-08T00:58:25.271Z,98891.66
2022-10-08T01:00:53.405Z,98884.16
2022-10-08T01:03:38.833Z,98886.53
2022-10-08T01:06:41.289Z,98870.28
2022-10-08T01:09:45.061Z,98874.75
2022-10-08T01:13:01.422Z,98875.75
2022-10-08T01:15:42.383Z,98860.66
2022-10-08T01:18:50.320Z,98862.69
2022-10-08T01:22:01.626Z,98861.03
2022-10-08T01:25:42.203Z,98845.66
2022-10-08T01:28:59.392Z,98854.78
2022-10-08T01:32:04.942Z,98849.03
2022-10-08T01:34:47.390Z,98847.91
2022-10-08T01:37:31.079Z,98833.84
2022-10-08T01:40:35.301Z,98846.25
2022-10-08T01:43:14.306Z,98844.19
2022-10-08T01:46:00.506Z,98849.63
2022-10-08T01:48:37.217Z,98842.91
2022-10-08T01:51:17.262Z,98838.88
2022-10-08T01:53:48.153Z,98841.59
2022-10-08T01:56:24.270Z,98842.03
2022-10-08T01:59:29.363Z,98840.91
2022-10-08T02:02:14.523Z,98833.38
2022-10-08T02:04:45.725Z,98835.94
2022-10-08T02:10:12.034Z,98833.13
2022-10-08T02:12:49.736Z,98834.09
2022-10-08T02:15:56.378Z,98821.34
2022-10-08T02:21:45.863Z,98833.75
2022-10-08T02:24:21.999Z,98825.28
2022-10-08T02:27:03.092Z,98830.97
2022-10-08T02:29:43.109Z,98835.22
2022-10-08T02:32:27.810Z,98832.19
2022-10-08T02:35:06.004Z,98840.09
2022-10-08T02:37:41.227Z,98830.75
2022-10-08T02:40:14.881Z,98836.09
2022-10-08T02:42:55.411Z,98839.31
2022-10-08T02:45:30.170Z,98832.09
2022-10-08T02:48:17.239Z,98840.44
2022-10-08T02:50:50.518Z,98840.94
2022-10-08T02:53:35.042Z,98844.13
2022-10-08T02:56:31.129Z,98847.94
2022-10-08T02:59:00.919Z,98846.03
2022-10-08T03:01:51.580Z,98821.59
2022-10-08T03:04:53.313Z,98837.41
2022-10-08T03:07:35.049Z,98841.00
2022-10-08T03:10:14.923Z,98839.03
2022-10-08T03:12:44.636Z,98835.69
2022-10-08T03:15:18.743Z,98842.13
2022-10-08T03:18:01.274Z,98846.53
2022-10-08T03:20:49.494Z,98843.63
2022-10-08T03:23:35.853Z,98846.22
2022-10-08T03:26:11.038Z,98839.31
2022-10-08T03:28:46.672Z,98823.69
2022-10-08T03:31:20.496Z,98840.75
2022-10-08T03:33:55.556Z,98836.41
2022-10-08T03:36:26.772Z,98831.28
2022-10-08T03:41:47.566Z,98835.22
2022-10-08T03:44:32.642Z,98828.25
2022-10-08T03:47:13.409Z,98829.69
2022-10-08T03:49:46.951Z,98835.63
2022-10-08T03:52:29.279Z,98792.28
2022-10-08T03:55:03.536Z,98837.53
2022-10-08T03:57:40.005Z,98834.13
2022-10-08T04:00:14.522Z,98823.34
2022-10-08T04:02:48.674Z,98817.09
2022-10-08T04:05:31.945Z,98826.78
2022-10-08T04:08:17.063Z,98830.38
2022-10-08T04:10:48.085Z,98840.06
2022-10-08T04:13:22.614Z,98829.84
2022-10-08T04:15:53.290Z,98789.56
2022-10-08T04:18:37.421Z,98837.22
2022-10-08T04:21:15.748Z,98836.44
2022-10-08T04:23:59.222Z,98835.13
2022-10-08T04:26:32.647Z,98833.75
2022-10-08T04:29:01.567Z,98810.78
2022-10-08T04:31:30.221Z,98826.59
2022-10-08T04:34:13.327Z,98830.91
2022-10-08T04:36:52.011Z,98816.97
2022-10-08T04:39:25.962Z,98821.25
2022-10-08T04:41:54.542Z,98823.41
2022-10-08T04:44:28.231Z,98817.72
2022-10-08T04:47:03.802Z,98822.66
2022-10-08T04:49:40.299Z,98819.09
2022-10-08T04:52:13.828Z,98815.88
2022-10-08T04:54:44.887Z,98816.91
2022-10-08T04:57:14.743Z,98817.72
2022-10-08T05:00:05.783Z,98811.47
2022-10-08T05:02:37.409Z,98797.59
2022-10-08T05:05:09.488Z,98823.50
2022-10-08T05:07:37.136Z,98812.09
2022-10-08T05:10:13.007Z,98819.00
2022-10-08T05:12:50.823Z,98817.47
2022-10-08T05:15:19.180Z,98807.44
2022-10-08T05:17:49.186Z,98802.63
2022-10-08T05:20:20.016Z,98822.47
2022-10-08T05:22:54.831Z,98826.09
2022-10-08T05:25:28.329Z,98821.69
2022-10-08T05:28:06.668Z,98823.91
2022-10-08T05:30:41.038Z,98827.28
2022-10-08T05:33:18.789Z,98830.66
2022-10-08T05:35:48.794Z,98827.38
2022-10-08T05:38:21.754Z,98828.75
2022-10-08T05:40:55.246Z,98830.38
2022-10-08T05:43:30.153Z,98825.16
2022-10-08T05:45:59.499Z,98830.09
2022-10-08T05:48:29.857Z,98832.94
2022-10-08T05:51:06.021Z,98833.28
2022-10-08T05:53:39.566Z,98829.50
2022-10-08T05:56:26.453Z,98825.41
2022-10-08T05:58:57.969Z,98831.28
2022-10-08T06:01:33.157Z,98836.53
2022-10-08T06:04:09.271Z,98833.25
2022-10-08T06:06:46.988Z,98834.00
2022-10-08T06:09:20.492Z,98837.28
2022-10-08T06:11:54.194Z,98839.53
2022-10-08T06:14:32.525Z,98841.75
2022-10-08T06:17:07.690Z,98844.59
2022-10-08T06:19:39.503Z,98843.66
2022-10-08T06:22:13.171Z,98844.53
2022-10-08T06:24:44.395Z,98846.03
2022-10-08T06:27:33.444Z,98846.22
2022-10-08T06:32:56.562Z,98852.41
2022-10-08T06:35:35.422Z,98856.16
2022-10-08T06:38:06.183Z,98858.41
2022-10-08T06:40:40.567Z,98861.53
2022-10-08T06:43:22.929Z,98864.78
2022-10-08T06:45:59.548Z,98865.94
2022-10-08T06:48:31.170Z,98868.91
2022-10-08T06:51:10.085Z,98846.00
2022-10-08T06:53:45.668Z,98873.06
2022-10-08T06:56:18.121Z,98879.59
2022-10-08T06:58:50.553Z,98872.38
2022-10-08T07:01:33.732Z,98870.81
2022-10-08T07:04:05.025Z,98868.53
2022-10-08T07:06:35.476Z,98872.50
2022-10-08T07:09:11.195Z,98880.41
2022-10-08T07:11:42.093Z,98881.06
2022-10-08T07:14:18.501Z,98882.56
2022-10-08T07:16:52.415Z,98882.31
2022-10-08T07:19:26.991Z,98880.66
2022-10-08T07:22:01.465Z,98883.69
2022-10-08T07:24:45.295Z,98888.44
2022-10-08T07:27:15.501Z,98884.50
2022-10-08T07:29:58.906Z,98885.97
2022-10-08T07:32:29.738Z,98892.78
2022-10-08T07:35:01.645Z,98906.91
2022-10-08T07:37:33.583Z,98900.28
2022-10-08T07:40:02.884Z,98903.25
2022-10-08T07:42:50.236Z,98904.06
2022-10-08T07:45:21.962Z,98901.22
2022-10-08T07:47:50.680Z,98909.66
2022-10-08T07:50:24.502Z,98912.28
2022-10-08T07:53:00.224Z,98904.91
2022-10-08T07:55:34.437Z,98911.28
2022-10-08T07:58:05.603Z,98897.91
2022-10-08T08:00:41.039Z,98914.78
2022-10-08T08:03:14.417Z,98914.78
2022-10-08T08:05:42.083Z,98903.97
2022-10-08T08:08:14.489Z,98895.34
2022-10-08T08:11:07.975Z,98910.28
2022-10-08T08:13:38.140Z,98910.13
2022-10-08T08:16:22.242Z,98910.03
2022-10-08T08:18:56.404Z,98902.84
2022-10-08T08:21:28.854Z,98885.47
2022-10-08T08:24:05.206Z,98910.25
2022-10-08T08:26:39.902Z,98907.47
2022-10-08T08:29:16.630Z,98907.47
2022-10-08T08:31:46.784Z,98906.47
2022-10-08T08:34:28.793Z,98905.66
2022-10-08T08:37:02.028Z,98889.44
2022-10-08T08:39:41.008Z,98893.72
2022-10-08T08:42:52.973Z,98907.63
2022-10-08T08:45:46.027Z,98900.28
2022-10-08T08:48:23.729Z,98903.22
2022-10-08T08:50:55.486Z,98900.31
2022-10-08T08:53:24.310Z,98906.38
2022-10-08T08:56:37.566Z,98907.06
2022-10-08T08:59:38.480Z,98907.34
2022-10-08T09:02:23.866Z,98908.91
2022-10-08T09:05:08.174Z,98899.44
2022-10-08T09:07:47.341Z,98906.94
2022-10-08T09:13:18.266Z,98908.63
2022-10-08T09:15:50.447Z,98908.00
2022-10-08T09:18:29.618Z,98907.22
2022-10-08T09:21:09.017Z,98906.41
2022-10-08T09:23:41.224Z,98910.19
2022-10-08T09:26:25.782Z,98894.78
2022-10-08T09:29:04.995Z,98901.59
2022-10-08T09:31:52.664Z,98905.56
2022-10-08T09:34:23.242Z,98895.59
2022-10-08T09:37:23.629Z,98906.91
2022-10-08T09:40:27.854Z,98902.53
2022-10-08T09:43:23.583Z,98895.78
2022-10-08T09:45:57.739Z,98893.25
2022-10-08T09:48:32.274Z,98892.59
2022-10-08T09:51:23.099Z,98889.81
2022-10-08T09:54:03.404Z,98904.72
2022-10-08T09:56:50.685Z,98893.81
2022-10-08T09:59:28.754Z,98885.97
2022-10-08T10:01:57.845Z,98886.47
2022-10-08T10:04:37.502Z,98884.19
2022-10-08T10:10:05.757Z,98886.16
2022-10-08T10:12:39.076Z,98874.81
2022-10-08T10:15:45.644Z,98870.41
2022-10-08T10:18:23.912Z,98868.13
2022-10-08T10:21:06.738Z,98847.28
2022-10-08T10:24:22.781Z,98860.53
2022-10-08T10:26:59.506Z,98852.44
2022-10-08T10:29:35.528Z,98852.66
2022-10-08T10:32:31.688Z,98825.22
2022-10-08T10:35:16.551Z,98839.44
2022-10-08T10:38:27.178Z,98829.72
2022-10-08T10:41:11.383Z,98823.38
2022-10-08T10:44:01.857Z,98812.06
2022-10-08T10:46:35.195Z,98825.16
2022-10-08T10:49:20.288Z,98815.25
2022-10-08T10:52:32.355Z,98793.97
2022-10-08T10:55:22.036Z,98797.19
2022-10-08T10:58:39.024Z,98794.13
2022-10-08T11:01:45.891Z,98777.91
2022-10-08T11:04:57.123Z,98773.59
2022-10-08T11:07:58.850Z,98767.47
2022-10-08T11:10:47.947Z,98768.91
2022-10-08T11:13:44.423Z,98760.44
2022-10-08T11:16:35.496Z,98770.59
2022-10-08T11:19:09.695Z,98761.22
2022-10-08T11:22:26.310Z,98746.44
2022-10-08T11:25:12.212Z,98735.69
2022-10-08T11:28:14.086Z,98733.28
2022-10-08T11:30:54.859Z,98676.09
2022-10-08T11:33:32.148Z,98723.28
2022-10-08T11:36:57.225Z,98718.84
2022-10-08T11:40:23.520Z,98707.53
2022-10-08T11:43:17.216Z,98711.09
2022-10-08T11:45:57.746Z,98698.53
2022-10-08T11:48:42.922Z,98703.47
2022-10-08T11:51:41.543Z,98693.97
2022-10-08T11:54:14.963Z,98689.75
2022-10-08T11:56:46.507Z,98680.13
2022-10-08T11:59:43.184Z,98628.81
2022-10-08T12:02:36.146Z,98677.41
2022-10-08T12:05:53.695Z,98676.66
2022-10-08T12:09:01.624Z,98667.72
2022-10-08T12:11:54.384Z,98669.31
2022-10-08T12:14:25.200Z,98669.53
2022-10-08T12:17:19.578Z,98660.88
2022-10-08T12:20:23.242Z,98653.50
2022-10-08T12:23:42.245Z,98657.34
2022-10-08T12:26:23.214Z,98651.16
2022-10-08T12:28:52.268Z,98649.06
2022-10-08T12:32:04.629Z,98639.72
2022-10-08T12:34:38.378Z,98632.44
2022-10-08T12:37:44.136Z,98636.66
2022-10-08T12:41:15.984Z,98635.88
2022-10-08T12:44:08.587Z,98628.78
2022-10-08T12:47:15.593Z,98628.63
2022-10-08T12:50:21.791Z,98629.50
2022-10-08T12:52:56.940Z,98627.09
2022-10-08T12:55:30.812Z,98624.19
2022-10-08T12:58:05.612Z,98616.16
2022-10-08T13:00:38.750Z,98615.16
2022-10-08T13:03:20.656Z,98613.81
2022-10-08T13:05:50.639Z,98619.31
2022-10-08T13:08:39.028Z,98614.97
2022-10-08T13:11:17.015Z,98615.59
2022-10-08T13:13:56.105Z,98607.16
2022-10-08T13:19:21.553Z,98605.56
2022-10-08T13:22:09.535Z,98582.09
2022-10-08T13:24:50.395Z,98593.63
2022-10-08T13:27:34.313Z,98605.06
2022-10-08T13:30:44.817Z,98592.25
2022-10-08T13:33:22.808Z,98601.94
2022-10-08T13:36:06.679Z,98597.00
2022-10-08T13:38:40.723Z,98605.25
2022-10-08T13:41:24.430Z,98599.56
2022-10-08T13:44:02.173Z,98592.78
2022-10-08T13:46:31.459Z,98590.81
2022-10-08T13:49:07.722Z,98591.38
2022-10-08T13:51:42.706Z,98584.72
2022-10-08T13:54:19.763Z,98575.09
2022-10-08T13:56:48.925Z,98584.19
2022-10-08T13:59:20.668Z,98588.47
2022-10-08T14:02:02.313Z,98584.16
2022-10-08T14:04:41.521Z,98589.19
2022-10-08T14:10:21.713Z,98589.84
2022-10-08T14:12:54.128Z,98589.84
2022-10-08T14:15:27.090Z,98583.81
2022-10-08T14:17:55.260Z,98593.50
2022-10-08T14:20:29.756Z,98589.34
2022-10-08T14:23:14.482Z,98581.81
2022-10-08T14:25:47.988Z,98582.84
2022-10-08T14:28:21.710Z,98589.38
2022-10-08T14:30:56.223Z,98593.75
2022-10-08T14:33:32.333Z,98599.56
2022-10-08T14:36:02.790Z,98601.63
2022-10-08T14:38:37.450Z,98597.19
2022-10-08T14:41:19.023Z,98586.47
2022-10-08T14:43:51.015Z,98592.50
2022-10-08T14:46:19.901Z,98594.28
2022-10-08T14:49:03.998Z,98593.84
2022-10-08T14:51:39.864Z,98597.09
2022-10-08T14:54:20.311Z,98603.88
2022-10-08T14:56:50.831Z,98598.63
2022-10-08T14:59:22.274Z,98605.22
2022-10-08T15:02:07.001Z,98600.28
2022-10-08T15:04:37.130Z,98591.88
2022-10-08T15:07:08.907Z,98594.31
2022-10-08T15:09:40.617Z,98595.66
2022-10-08T15:12:18.480Z,98596.47
2022-10-08T15:15:00.330Z,98581.47
2022-10-08T15:17:45.933Z,98602.53
2022-10-08T15:20:21.547Z,98603.66
2022-10-08T15:22:51.077Z,98599.34
2022-10-08T15:25:21.699Z,98606.16
2022-10-08T15:27:49.882Z,98620.53
2022-10-08T15:30:27.355Z,98615.50
2022-10-08T15:33:02.803Z,98614.91
2022-10-08T15:35:35.774Z,98619.69
2022-10-08T15:38:06.278Z,98612.13
2022-10-08T15:40:40.226Z,98618.91
2022-10-08T15:43:16.911Z,98604.44
2022-10-08T15:45:49.271Z,98632.78
2022-10-08T15:48:19.487Z,98640.81
2022-10-08T15:51:06.263Z,98618.38
2022-10-08T15:53:45.480Z,98640.72
2022-10-08T15:56:23.612Z,98644.25
2022-10-08T15:58:54.531Z,98642.63
2022-10-08T16:04:20.819Z,98653.03
2022-10-08T16:07:07.085Z,98656.94
2022-10-08T16:09:42.076Z,98658.47
2022-10-08T16:14:58.995Z,98667.00
